Time;durP1;ratioP1;P1;durP2;ratioP2;P2;SDS_P1;SDS_P2;PMS_P1;PMS_P2;Temp;Humidity;BMP_temperature;BMP_pressure;BME280_temperature;BME280_humidity;BME280_pressure;Samples;Min_cycle;Max_cycle;Signal;HPM_P1;HPM_P2
2023/03/07 00:00:20;;;;;;;24.10;9.20;;;;;;;2.07;67.53;98847.08;78261;1295;3058349;-59
2023/03/07 00:02:51;;;;;;;29.90;9.60;;;;;;;2.04;68.07;98844.27;79479;1295;3013246;-60
2023/03/07 00:05:20;;;;;;;19.20;8.50;;;;;;;2.16;67.79;98840.52;78316;1298;3053539;-64
2023/03/07 00:07:47;;;;;;;16.50;7.30;;;;;;;2.19;67.80;98838.38;79542;1295;3013339;-59
2023/03/07 00:10:13;;;;;;;19.30;8.00;;;;;;;2.18;67.56;98839.25;79440;1298;3013224;-60
2023/03/07 00:12:43;;;;;;;16.30;7.90;;;;;;;2.16;67.69;98837.92;78274;1295;3070733;-59
2023/03/07 00:15:10;;;;;;;21.70;7.70;;;;;;;2.11;68.11;98837.61;79562;1295;3013701;-59
2023/03/07 00:17:38;;;;;;;16.20;7.20;;;;;;;2.01;68.49;98838.34;79487;1295;3013662;-60
2023/03/07 00:20:07;;;;;;;16.60;7.60;;;;;;;1.99;69.16;98833.55;78247;1298;3053363;-62
2023/03/07 00:22:34;;;;;;;17.80;7.20;;;;;;;2.02;69.01;98833.26;79613;1298;3012642;-63
2023/03/07 00:25:01;;;;;;;15.40;7.10;;;;;;;2.00;69.01;98832.30;79485;1295;3011798;-61
2023/03/07 00:27:29;;;;;;;23.30;7.30;;;;;;;1.94;69.63;98830.27;78384;1298;3069049;-58
2023/03/07 00:29:57;;;;;;;18.80;6.90;;;;;;;1.91;69.62;98832.11;79599;1295;3013325;-62
2023/03/07 00:32:24;;;;;;;14.00;6.60;;;;;;;1.91;70.03;98831.23;79465;1295;3011630;-62
2023/03/07 00:34:53;;;;;;;15.60;6.30;;;;;;;1.96;69.96;98830.90;78265;1296;3055016;-61
2023/03/07 00:37:21;;;;;;;13.50;6.50;;;;;;;1.85;70.47;98835.24;79183;1301;3015505;-64
2023/03/07 00:39:53;;;;;;;16.50;7.80;;;;;;;1.89;70.56;98832.35;78300;1297;3051576;-61
2023/03/07 00:42:19;;;;;;;17.00;7.30;;;;;;;1.85;70.75;98828.49;79505;1298;3013911;-61
2023/03/07 00:44:46;;;;;;;11.30;6.70;;;;;;;1.82;71.02;98826.52;79389;1298;3011787;-61
2023/03/07 00:47:14;;;;;;;16.90;7.00;;;;;;;1.83;71.31;98829.27;78320;1297;3028804;-59
2023/03/07 00:49:41;;;;;;;14.60;6.20;;;;;;;1.82;71.40;98834.50;79475;1296;3012926;-62
2023/03/07 00:52:07;;;;;;;14.70;7.40;;;;;;;1.75;71.88;98836.96;79495;1298;3013112;-62
2023/03/07 00:54:36;;;;;;;16.50;6.60;;;;;;;1.66;72.46;98839.53;78107;1298;3052165;-61
2023/03/07 00:57:07;;;;;;;12.00;6.40;;;;;;;1.66;73.09;98835.54;79293;1300;3011664;-62
2023/03/07 00:59:37;;;;;;;14.80;6.30;;;;;;;1.74;72.91;98833.92;78096;1300;3052367;-63
2023/03/07 01:02:04;;;;;;;12.80;6.80;;;;;;;1.77;72.82;98831.23;79281;1296;3013790;-61
2023/03/07 01:04:31;;;;;;;13.20;6.80;;;;;;;1.70;73.08;98826.80;79519;1295;3011437;-62
2023/03/07 01:07:00;;;;;;;12.80;6.60;;;;;;;1.72;73.11;98821.02;78204;1297;3051302;-61
2023/03/07 01:09:28;;;;;;;13.00;6.80;;;;;;;1.75;73.13;98819.19;79324;1301;3013105;-59
2023/03/07 01:11:56;;;;;;;11.60;6.00;;;;;;;1.75;73.42;98823.18;79511;1298;3011607;-62
2023/03/07 01:14:26;;;;;;;15.50;7.10;;;;;;;1.60;73.91;98821.10;78205;1298;3051350;-63
2023/03/07 01:16:53;;;;;;;13.20;6.80;;;;;;;1.58;74.37;98821.01;79260;1295;3018291;-61
2023/03/07 01:19:20;;;;;;;15.30;6.70;;;;;;;1.62;74.17;98816.35;79584;1298;3011775;-61
2023/03/07 01:21:48;;;;;;;14.80;6.30;;;;;;;1.60;74.56;98815.20;78373;1297;3029453;-61
2023/03/07 01:24:15;;;;;;;14.10;6.60;;;;;;;1.68;74.29;98807.19;79473;1295;3013602;-62
2023/03/07 01:26:42;;;;;;;15.00;6.10;;;;;;;1.64;74.28;98806.63;79431;1296;3011363;-63
2023/03/07 01:29:10;;;;;;;14.10;6.60;;;;;;;1.64;74.89;98805.78;78007;1300;3028722;-59
2023/03/07 01:31:37;;;;;;;13.00;6.40;;;;;;;1.61;75.42;98801.37;79527;1295;3013970;-61
2023/03/07 01:34:05;;;;;;;9.30;4.30;;;;;;;1.68;75.33;98798.52;79499;1295;3011917;-61
2023/03/07 01:36:36;;;;;;;7.40;4.30;;;;;;;2.16;74.29;98787.33;78261;1297;3049559;-63
2023/03/07 01:39:09;;;;;;;10.90;5.20;;;;;;;2.72;72.07;98795.21;79455;1294;3013426;-60
2023/03/07 01:41:40;;;;;;;12.10;5.80;;;;;;;2.95;71.35;98794.30;78291;1297;3052353;-61
2023/03/07 01:44:20;;;;;;;10.70;5.10;;;;;;;2.89;71.75;98791.27;79542;1295;3011460;-62
2023/03/07 01:46:51;;;;;;;15.40;6.20;;;;;;;2.78;71.79;98791.53;78306;1296;3053005;-64
2023/03/07 01:49:28;;;;;;;12.40;5.70;;;;;;;2.49;72.96;98792.14;79304;1300;3012151;-60
2023/03/07 01:52:04;;;;;;;13.70;6.20;;;;;;;2.30;74.03;98795.98;78267;1297;3050098;-61
2023/03/07 01:54:31;;;;;;;;;;;;;;;2.16;75.08;98796.48;79511;1295;3011584;-62
2023/03/07 01:57:03;;;;;;;11.00;5.20;;;;;;;2.15;75.47;98795.50;78001;1298;3048034;-62
2023/03/07 01:59:32;;;;;;;12.10;6.00;;;;;;;2.06;75.90;98794.76;79312;1300;3014224;-61
2023/03/07 02:02:21;;;;;;;11.00;5.60;;;;;;;1.98;76.54;98790.91;79456;1296;3012788;-64
2023/03/07 02:04:49;;;;;;;13.90;6.50;;;;;;;1.88;77.39;98791.80;78416;1298;3051642;-63
2023/03/07 02:07:16;;;;;;;17.50;7.40;;;;;;;1.81;77.60;98791.50;79455;1295;3018780;-63
2023/03/07 02:09:49;;;;;;;11.60;6.00;;;;;;;1.83;78.19;98789.72;78035;1300;3054507;-63
2023/03/07 02:12:16;;;;;;;12.50;5.50;;;;;;;1.90;77.72;98789.31;79215;1303;3013438;-60
2023/03/07 02:14:42;;;;;;;13.60;5.90;;;;;;;1.92;77.53;98789.23;79264;1300;3013428;-62
2023/03/07 02:17:10;;;;;;;15.10;5.90;;;;;;;1.95;77.59;98788.42;78010;1301;3069279;-63
2023/03/07 02:19:51;;;;;;;8.30;4.30;;;;;;;1.90;78.25;98788.10;79267;1296;3018759;-63
2023/03/07 02:22:21;;;;;;;6.30;3.20;;;;;;;2.56;77.05;98787.03;78207;1298;3051019;-64
2023/03/07 02:24:51;;;;;;;9.30;4.30;;;;;;;3.11;74.37;98782.78;79241;1296;3019743;-61
2023/03/07 02:27:23;;;;;;;7.50;4.20;;;;;;;3.26;73.73;98783.74;78203;1297;3052749;-61
2023/03/07 02:29:52;;;;;;;11.50;5.40;;;;;;;3.23;73.81;98785.59;79526;1298;3011908;-61
2023/03/07 02:32:21;;;;;;;8.90;4.70;;;;;;;3.16;73.68;98784.33;78282;1295;3025934;-62
2023/03/07 02:34:47;;;;;;;9.40;5.10;;;;;;;3.00;74.50;98784.11;79540;1294;3013316;-61
2023/03/07 02:37:23;;;;;;;9.20;4.60;;;;;;;2.85;75.28;98779.35;78993;1298;3014058;-61
2023/03/07 02:39:50;;;;;;;9.20;4.90;;;;;;;2.62;76.57;98776.10;79314;1295;3011440;-63
2023/03/07 02:42:21;;;;;;;8.20;4.90;;;;;;;2.58;76.91;98778.30;78165;1295;3054423;-60
2023/03/07 02:44:58;;;;;;;10.30;5.00;;;;;;;2.52;77.02;98776.98;79273;1295;3012295;-65
2023/03/07 02:47:28;;;;;;;8.10;4.70;;;;;;;2.40;77.45;98774.48;78284;1295;3053016;-62
2023/03/07 02:49:57;;;;;;;10.30;5.10;;;;;;;2.36;78.10;98776.23;79485;1297;3013358;-63
2023/03/07 02:52:26;;;;;;;11.00;4.80;;;;;;;2.26;78.38;98776.07;79552;1296;3011800;-63
2023/03/07 02:54:55;;;;;;;10.70;5.20;;;;;;;2.34;78.26;98773.50;78208;1297;3057742;-62
2023/03/07 02:57:25;;;;;;;9.80;5.00;;;;;;;2.31;78.30;98772.96;79280;1300;3013120;-65
2023/03/07 02:59:54;;;;;;;11.00;5.90;;;;;;;2.42;78.11;98770.46;78310;1298;3056515;-62
2023/03/07 03:02:21;;;;;;;7.30;3.90;;;;;;;2.40;78.13;98766.38;79446;1298;3013082;-61
2023/03/07 03:04:48;;;;;;;7.20;3.30;;;;;;;2.89;77.05;98766.89;79340;1301;3012974;-62
2023/03/07 03:07:16;;;;;;;10.40;4.50;;;;;;;3.51;74.92;98763.96;78316;1297;3028912;-63
2023/03/07 03:09:43;;;;;;;8.60;4.40;;;;;;;3.49;74.15;98766.45;79405;1296;3013653;-62
2023/03/07 03:12:14;;;;;;;8.60;4.70;;;;;;;3.27;74.84;98764.66;79007;1295;3011874;-62
2023/03/07 03:14:42;;;;;;;8.80;4.70;;;;;;;3.23;75.20;98762.36;79741;1295;3013212;-64
2023/03/07 03:17:08;;;;;;;12.20;4.90;;;;;;;3.04;75.66;98762.10;79473;1295;3011868;-64
2023/03/07 03:19:40;;;;;;;9.00;4.70;;;;;;;2.81;77.04;98757.70;78333;1298;3053576;-59
2023/03/07 03:22:07;;;;;;;9.40;4.40;;;;;;;2.81;77.91;98758.73;79504;1299;3013711;-61
2023/03/07 03:24:39;;;;;;;8.20;4.30;;;;;;;2.75;77.83;98755.69;79566;1293;3011520;-61
2023/03/07 03:27:07;;;;;;;8.80;4.50;;;;;;;2.55;78.48;98753.52;78246;1295;3056690;-61
2023/03/07 03:29:34;;;;;;;10.10;4.60;;;;;;;2.46;78.75;98748.16;79499;1296;3013087;-61
2023/03/07 03:32:02;;;;;;;8.50;4.70;;;;;;;2.37;79.60;98744.37;79442;1296;3013284;-61
2023/03/07 03:34:31;;;;;;;11.50;5.50;;;;;;;2.21;80.39;98745.48;78087;1301;3052289;-60
2023/03/07 03:36:58;;;;;;;10.30;4.80;;;;;;;2.18;81.12;98739.41;79484;1298;3013585;-61
2023/03/07 03:39:24;;;;;;;7.20;3.40;;;;;;;2.14;81.14;98738.66;79852;1295;3011760;-63
2023/03/07 03:41:56;;;;;;;6.60;3.10;;;;;;;2.61;80.29;98739.44;78322;1295;3057592;-61
2023/03/07 03:44:22;;;;;;;10.30;4.50;;;;;;;3.15;77.63;98741.25;79319;1296;3013559;-62
2023/03/07 03:46:50;;;;;;;7.60;4.50;;;;;;;3.13;77.46;98738.91;79614;1295;3011549;-63
2023/03/07 03:49:19;;;;;;;10.30;4.50;;;;;;;2.98;77.67;98741.94;78275;1298;3054602;-61
2023/03/07 03:51:47;;;;;;;6.60;4.10;;;;;;;2.86;78.10;98743.16;79501;1298;3011724;-63
2023/03/07 03:54:17;;;;;;;9.30;4.90;;;;;;;2.79;78.46;98739.42;78843;1294;3011781;-64
2023/03/07 03:56:44;;;;;;;8.10;4.50;;;;;;;2.77;78.84;98740.23;79606;1295;3013501;-62
2023/03/07 03:59:10;;;;;;;8.70;4.30;;;;;;;2.57;79.24;98745.16;79491;1298;3011688;-61
2023/03/07 04:01:38;;;;;;;8.40;4.40;;;;;;;2.52;79.80;98738.25;78363;1295;3028520;-63
2023/03/07 04:04:05;;;;;;;9.10;4.40;;;;;;;2.53;79.89;98736.48;79290;1300;3013647;-64
2023/03/07 04:06:33;;;;;;;10.10;5.20;;;;;;;2.47;80.11;98735.88;79558;1298;3012950;-65
2023/03/07 04:09:04;;;;;;;8.40;4.80;;;;;;;2.41;80.42;98738.19;78307;1295;3068875;-61
2023/03/07 04:11:33;;;;;;;11.60;5.50;;;;;;;2.36;80.60;98735.95;79280;1295;3013240;-62
2023/03/07 04:14:01;;;;;;;7.50;3.90;;;;;;;2.35;80.90;98738.76;79536;1296;3012151;-63
2023/03/07 04:16:29;;;;;;;7.20;3.30;;;;;;;2.86;79.67;98736.36;78032;1301;3055053;-61
2023/03/07 04:18:56;;;;;;;7.30;3.90;;;;;;;3.30;77.62;98736.84;79487;1298;3012854;-65
2023/03/07 04:21:23;;;;;;;8.10;3.90;;;;;;;3.52;76.66;98733.47;79534;1298;3011819;-63
2023/03/07 04:23:59;;;;;;;7.30;3.90;;;;;;;3.49;76.33;98733.59;78101;1298;3070059;-62
2023/03/07 04:26:29;;;;;;;13.40;6.70;;;;;;;3.39;76.58;98734.34;79465;1294;3011633;-63
2023/03/07 04:28:58;;;;;;;18.30;8.20;;;;;;;3.26;76.75;98744.77;78374;1298;3057257;-61
2023/03/07 04:31:33;;;;;;;13.30;6.40;;;;;;;3.06;77.39;98743.02;79065;1296;3011648;-61
2023/03/07 04:34:02;;;;;;;13.90;7.00;;;;;;;2.97;77.91;98737.33;79590;1294;3013725;-61
2023/03/07 04:36:29;;;;;;;13.50;8.30;;;;;;;2.83;78.30;98737.70;79539;1295;3013659;-63
2023/03/07 04:38:58;;;;;;;13.10;7.70;;;;;;;2.85;78.09;98740.58;78298;1298;3053162;-63
2023/03/07 04:41:26;;;;;;;14.50;7.90;;;;;;;2.73;78.71;98739.52;79589;1297;3013204;-62
2023/03/07 04:44:19;;;;;;;12.20;7.40;;;;;;;2.66;79.17;98742.05;78372;1296;3051563;-63
2023/03/07 04:46:47;;;;;;;11.10;7.00;;;;;;;2.58;79.93;98742.00;79413;1295;3011809;-62
2023/03/07 04:49:16;;;;;;;16.50;6.80;;;;;;;2.63;79.83;98744.73;78942;1296;3011722;-62
2023/03/07 04:51:43;;;;;;;12.20;5.80;;;;;;;2.61;79.99;98744.63;79210;1296;3012891;-61
2023/03/07 04:54:10;;;;;;;13.60;5.80;;;;;;;3.26;78.76;98738.54;79251;1296;3012835;-64
2023/03/07 04:56:38;;;;;;;14.50;7.10;;;;;;;3.95;76.03;98737.96;78102;1296;3052875;-64
2023/03/07 04:59:06;;;;;;;29.10;10.40;;;;;;;4.01;74.85;98738.23;79224;1300;3018533;-62
2023/03/07 05:01:33;;;;;;;24.40;9.80;;;;;;;4.05;74.76;98737.17;79534;1298;3011555;-63
2023/03/07 05:04:02;;;;;;;24.90;11.00;;;;;;;3.89;75.10;98740.52;78259;1298;3048770;-62
2023/03/07 05:06:28;;;;;;;27.20;10.60;;;;;;;3.73;75.30;98737.73;79556;1295;3013382;-59
2023/03/07 05:08:55;;;;;;;23.40;11.00;;;;;;;3.67;75.35;98742.33;79561;1298;3012951;-61
2023/03/07 05:11:23;;;;;;;22.50;10.10;;;;;;;3.51;75.65;98744.23;78117;1300;3028460;-64
2023/03/07 05:13:53;;;;;;;23.10;10.10;;;;;;;3.40;76.15;98741.23;79527;1295;3011821;-61
2023/03/07 05:16:23;;;;;;;18.90;9.00;;;;;;;3.23;76.69;98749.92;78320;1296;3051839;-60
2023/03/07 05:18:50;;;;;;;20.70;8.20;;;;;;;3.14;77.35;98745.61;79225;1295;3013097;-59
2023/03/07 05:21:17;;;;;;;18.90;9.20;;;;;;;3.12;77.35;98747.26;79618;1298;3011571;-61
2023/03/07 05:23:51;;;;;;;20.10;8.70;;;;;;;3.00;77.70;98746.73;78314;1298;3050226;-60
2023/03/07 05:26:20;;;;;;;18.70;9.20;;;;;;;2.93;78.29;98750.83;79434;1298;3011563;-61
2023/03/07 05:28:49;;;;;;;20.40;8.80;;;;;;;2.95;78.19;98750.03;79031;1296;3011569;-62
2023/03/07 05:31:17;;;;;;;18.00;8.60;;;;;;;2.92;78.56;98746.38;79552;1298;3013290;-59
2023/03/07 05:33:43;;;;;;;14.50;5.80;;;;;;;2.97;78.51;98746.33;79462;1298;3011686;-63
2023/03/07 05:36:12;;;;;;;8.60;4.50;;;;;;;3.54;77.28;98737.52;78288;1296;3049535;-61
2023/03/07 05:38:38;;;;;;;15.80;7.10;;;;;;;4.08;74.60;98734.26;79716;1298;3018865;-61
2023/03/07 05:41:05;;;;;;;12.30;5.90;;;;;;;4.32;73.89;98734.19;79519;1298;3011557;-62
2023/03/07 05:43:39;;;;;;;14.60;6.50;;;;;;;4.32;73.26;98736.43;78142;1301;3052519;-61
2023/03/07 05:46:07;;;;;;;13.70;7.40;;;;;;;4.24;73.19;98736.13;79468;1298;3013461;-62
2023/03/07 05:48:33;;;;;;;16.90;7.10;;;;;;;3.98;73.82;98739.73;79477;1294;3011673;-62
2023/03/07 05:51:02;;;;;;;14.50;6.30;;;;;;;3.90;74.19;98741.14;78274;1298;3049804;-62
2023/03/07 05:53:30;;;;;;;13.50;7.20;;;;;;;3.62;74.84;98740.98;79515;1297;3013187;-62
2023/03/07 05:56:02;;;;;;;14.20;7.00;;;;;;;3.61;75.24;98741.73;78133;1300;3051971;-63
2023/03/07 05:58:30;;;;;;;14.30;6.60;;;;;;;3.54;75.44;98737.52;79569;1298;3013056;-63
2023/03/07 06:00:57;;;;;;;14.30;7.40;;;;;;;3.55;75.44;98736.09;79508;1296;3012798;-65
2023/03/07 06:03:25;;;;;;;13.00;6.60;;;;;;;3.47;75.29;98737.82;78267;1295;3057080;-61
2023/03/07 06:05:52;;;;;;;13.10;6.90;;;;;;;3.35;75.47;98738.67;79493;1295;3013385;-62
2023/03/07 06:08:21;;;;;;;12.20;6.00;;;;;;;3.33;75.36;98746.36;79547;1296;3013856;-62
2023/03/07 06:10:53;;;;;;;14.50;8.50;;;;;;;3.21;76.05;98745.67;78389;1298;3052408;-62
2023/03/07 06:13:21;;;;;;;16.10;7.90;;;;;;;3.30;75.49;98742.17;79477;1298;3011957;-62
2023/03/07 06:15:50;;;;;;;15.60;7.90;;;;;;;3.21;75.65;98746.02;78229;1298;3068982;-61
2023/03/07 06:18:19;;;;;;;20.00;8.20;;;;;;;3.13;76.06;98742.73;79569;1296;3011524;-61
2023/03/07 06:20:58;;;;;;;17.60;8.60;;;;;;;3.13;76.05;98746.20;78097;1301;3026662;-63
2023/03/07 06:23:27;;;;;;;18.10;8.00;;;;;;;3.09;76.25;98746.36;77997;1301;3051449;-61
2023/03/07 06:25:54;;;;;;;17.90;7.70;;;;;;;3.11;76.37;98740.23;79635;1307;3013455;-61
2023/03/07 06:28:21;;;;;;;14.50;7.60;;;;;;;3.13;76.56;98737.01;79435;1295;3013693;-63
2023/03/07 06:30:49;;;;;;;17.50;5.80;;;;;;;3.12;76.67;98734.09;78100;1299;3052147;-63
2023/03/07 06:33:17;;;;;;;9.80;4.50;;;;;;;3.68;75.19;98729.98;79252;1296;3013970;-63
2023/03/07 06:35:48;;;;;;;13.00;6.30;;;;;;;4.43;72.43;98729.02;78851;1294;3011481;-62
2023/03/07 06:38:15;;;;;;;12.70;6.60;;;;;;;4.65;70.98;98722.10;79247;1296;3012913;-63
2023/03/07 06:40:43;;;;;;;13.50;6.40;;;;;;;4.37;71.73;98724.98;79421;1296;3011944;-62
2023/03/07 06:43:11;;;;;;;14.20;7.00;;;;;;;4.25;71.89;98725.33;78010;1300;3050077;-62
2023/03/07 06:45:38;;;;;;;14.60;7.30;;;;;;;4.04;72.49;98725.95;79215;1301;3018615;-63
2023/03/07 06:48:10;;;;;;;14.40;7.50;;;;;;;3.92;73.23;98726.50;78291;1296;3069441;-62
2023/03/07 06:50:38;;;;;;;16.70;7.80;;;;;;;3.99;73.45;98723.95;79590;1295;3013410;-62
2023/03/07 06:53:05;;;;;;;14.10;7.40;;;;;;;3.93;73.50;98721.75;79318;1295;3011647;-61
2023/03/07 06:55:36;;;;;;;16.20;8.10;;;;;;;3.82;73.87;98715.32;78305;1295;3054113;-65
2023/03/07 06:58:03;;;;;;;15.50;8.40;;;;;;;3.90;74.13;98717.77;79569;1299;3020837;-63
2023/03/07 07:00:30;;;;;;;20.20;9.00;;;;;;;4.04;73.59;98717.49;79325;1301;3011501;-62
2023/03/07 07:02:58;;;;;;;20.00;9.30;;;;;;;4.11;73.34;98718.37;78102;1298;3068698;-63
2023/03/07 07:05:24;;;;;;;18.00;8.60;;;;;;;3.85;74.09;98723.67;79368;1295;3013045;-64
2023/03/07 07:07:51;;;;;;;15.60;9.30;;;;;;;3.49;75.59;98727.16;79166;1300;3011950;-62
2023/03/07 07:10:19;;;;;;;17.20;9.10;;;;;;;3.63;75.82;98724.34;78416;1295;3026847;-64
2023/03/07 07:12:46;;;;;;;17.50;8.90;;;;;;;3.63;75.73;98730.05;79685;1298;3020795;-61
2023/03/07 07:15:18;;;;;;;21.60;10.00;;;;;;;3.40;76.62;98734.48;79231;1298;3013773;-61
2023/03/07 07:17:47;;;;;;;18.30;8.00;;;;;;;3.40;76.99;98729.28;79767;1298;3011622;-64
2023/03/07 07:20:20;;;;;;;10.10;5.50;;;;;;;3.47;77.28;98728.83;78169;1296;3069662;-63
2023/03/07 07:22:47;;;;;;;12.60;6.30;;;;;;;3.96;75.88;98721.98;78170;1294;3013109;-65
2023/03/07 07:25:14;;;;;;;15.30;7.50;;;;;;;4.46;73.79;98720.34;79530;1297;3013205;-62
2023/03/07 07:27:44;;;;;;;13.50;6.50;;;;;;;4.27;74.27;98719.70;78088;1300;3053087;-62
2023/03/07 07:30:12;;;;;;;13.20;7.60;;;;;;;4.53;73.76;98710.68;79608;1298;3011738;-62
2023/03/07 07:32:40;;;;;;;13.80;8.10;;;;;;;4.47;73.26;98717.56;79545;1298;3013060;-61
2023/03/07 07:35:09;;;;;;;15.30;8.10;;;;;;;4.07;74.92;98720.97;78490;1296;3069354;-62
2023/03/07 07:37:36;;;;;;;19.70;9.20;;;;;;;4.09;75.35;98718.27;79830;1296;3012990;-64
2023/03/07 07:40:04;;;;;;;14.90;8.70;;;;;;;4.12;75.43;98720.93;79626;1294;3011579;-65
2023/03/07 07:42:32;;;;;;;17.90;8.20;;;;;;;4.25;75.03;98721.02;78651;1298;3055053;-64
2023/03/07 07:45:21;;;;;;;14.20;6.60;;;;;;;4.19;75.30;98724.05;78344;1298;3050730;-63
2023/03/07 07:47:50;;;;;;;17.40;8.90;;;;;;;4.13;75.89;98716.68;79398;1296;3011949;-63
2023/03/07 07:50:19;;;;;;;16.50;8.20;;;;;;;4.24;75.62;98711.19;78249;1298;3028927;-65
2023/03/07 07:52:48;;;;;;;15.90;8.10;;;;;;;4.31;75.62;98709.13;79447;1296;3013274;-64
2023/03/07 07:55:17;;;;;;;17.40;8.50;;;;;;;4.24;75.97;98709.43;78710;1301;3012073;-63
2023/03/07 07:57:44;;;;;;;18.00;9.80;;;;;;;4.20;76.64;98714.48;79614;1296;3014653;-63
2023/03/07 08:00:11;;;;;;;14.50;6.80;;;;;;;4.23;76.68;98717.62;79491;1296;3011638;-63
2023/03/07 08:02:42;;;;;;;17.30;7.30;;;;;;;4.87;75.16;98717.17;78304;1298;3049650;-63
2023/03/07 08:05:11;;;;;;;12.90;7.40;;;;;;;5.33;72.98;98715.27;79531;1298;3013518;-62
2023/03/07 08:07:42;;;;;;;19.40;8.50;;;;;;;5.40;72.91;98708.98;78631;1298;3026791;-63
2023/03/07 08:10:10;;;;;;;18.00;8.10;;;;;;;5.42;72.42;98707.17;79439;1296;3014754;-60
2023/03/07 08:12:50;;;;;;;18.90;8.70;;;;;;;5.26;73.05;98714.02;78113;1296;3057257;-61
2023/03/07 08:15:20;;;;;;;17.70;8.70;;;;;;;4.89;74.53;98715.19;78348;1295;3050360;-61
2023/03/07 08:17:54;;;;;;;17.30;8.20;;;;;;;4.81;75.32;98714.90;79050;1298;3013168;-60
2023/03/07 08:20:30;;;;;;;15.40;8.90;;;;;;;4.82;75.34;98715.21;78301;1298;3053910;-61
2023/03/07 08:22:57;;;;;;;15.90;8.60;;;;;;;4.84;75.12;98720.63;79532;1299;3012865;-61
2023/03/07 08:25:23;;;;;;;13.70;8.10;;;;;;;4.69;76.10;98722.91;79444;1297;3011805;-65
2023/03/07 08:27:56;;;;;;;13.20;7.70;;;;;;;4.76;75.93;98725.51;78391;1298;3069166;-61
2023/03/07 08:30:26;;;;;;;16.90;8.10;;;;;;;4.63;76.10;98726.70;79578;1295;3011812;-63
2023/03/07 08:32:55;;;;;;;13.70;7.40;;;;;;;4.64;76.51;98724.20;78363;1296;3026785;-65
2023/03/07 08:35:22;;;;;;;15.00;7.50;;;;;;;4.61;76.19;98725.38;79637;1298;3012933;-62
2023/03/07 08:37:53;;;;;;;15.20;8.50;;;;;;;4.68;76.11;98719.70;79455;1295;3011634;-62
2023/03/07 08:40:21;;;;;;;15.60;9.40;;;;;;;4.91;75.15;98715.77;78267;1298;3051919;-65
2023/03/07 08:43:24;;;;;;;10.90;6.40;;;;;;;4.94;74.26;98716.52;79986;1303;3015010;-63
2023/03/07 08:45:51;;;;;;;14.00;7.50;;;;;;;5.33;73.22;98716.29;79189;1304;3013130;-63
2023/03/07 08:48:19;;;;;;;11.30;6.60;;;;;;;6.09;71.15;98712.02;79137;1304;3011901;-61
2023/03/07 08:50:47;;;;;;;13.50;7.30;;;;;;;5.97;69.94;98708.80;77826;1305;3053558;-63
2023/03/07 08:53:15;;;;;;;15.40;8.00;;;;;;;6.00;70.12;98706.05;79024;1300;3011491;-60
2023/03/07 08:55:44;;;;;;;18.50;9.00;;;;;;;5.93;70.24;98704.14;77696;1305;3013365;-62
2023/03/07 08:58:13;;;;;;;20.30;9.50;;;;;;;5.59;71.43;98706.09;78075;1302;3050457;-63
2023/03/07 09:00:39;;;;;;;14.60;8.80;;;;;;;5.41;72.44;98712.58;79255;1309;3013687;-63
2023/03/07 09:03:06;;;;;;;17.80;10.50;;;;;;;5.24;72.82;98713.98;79251;1302;3013629;-61
2023/03/07 09:05:37;;;;;;;16.80;9.90;;;;;;;5.38;72.81;98711.17;78021;1309;3028336;-63
2023/03/07 09:08:05;;;;;;;22.60;11.10;;;;;;;5.51;72.32;98708.60;79276;1301;3011521;-62
2023/03/07 09:10:35;;;;;;;22.30;10.80;;;;;;;5.25;73.02;98711.14;78084;1299;3049715;-63
2023/03/07 09:13:02;;;;;;;21.70;9.70;;;;;;;5.46;72.56;98700.70;79135;1301;3011948;-62
2023/03/07 09:15:28;;;;;;;20.70;11.10;;;;;;;5.54;72.21;98702.86;79212;1300;3011858;-60
2023/03/07 09:17:56;;;;;;;20.40;11.60;;;;;;;5.69;71.94;98702.98;78022;1299;3027474;-61
2023/03/07 09:20:23;;;;;;;18.10;10.10;;;;;;;5.46;72.36;98710.43;79194;1306;3018439;-60
2023/03/07 09:22:53;;;;;;;15.50;9.80;;;;;;;5.56;72.53;98699.83;79283;1301;3013574;-61
2023/03/07 09:25:21;;;;;;;16.80;10.00;;;;;;;5.68;72.02;98701.98;78102;1298;3051650;-62
2023/03/07 09:27:49;;;;;;;18.10;10.40;;;;;;;5.84;71.70;98694.21;79241;1299;3013338;-63
2023/03/07 09:30:16;;;;;;;19.10;10.70;;;;;;;5.99;71.09;98695.70;79338;1302;3011975;-63
2023/03/07 09:32:44;;;;;;;18.10;9.50;;;;;;;6.00;71.10;98692.00;77939;1298;3051108;-63
2023/03/07 09:35:12;;;;;;;17.90;9.50;;;;;;;6.12;70.61;98686.45;79319;1301;3013649;-63
2023/03/07 09:37:39;;;;;;;15.40;9.30;;;;;;;6.30;69.97;98687.19;79218;1301;3011678;-60
2023/03/07 09:40:18;;;;;;;20.10;9.30;;;;;;;6.26;70.33;98691.77;78000;1301;3051259;-61
2023/03/07 09:42:54;;;;;;;23.40;9.60;;;;;;;6.29;70.59;98688.17;78706;1301;3013266;-62
2023/03/07 09:45:28;;;;;;;19.10;10.60;;;;;;;6.31;70.57;98681.76;77959;1301;3058783;-63
2023/03/07 09:48:35;;;;;;;17.20;9.20;;;;;;;6.49;70.20;98673.30;78007;1301;3049817;-60
2023/03/07 09:51:24;;;;;;;21.20;9.60;;;;;;;6.81;68.91;98670.59;77951;1305;3054107;-63
2023/03/07 09:53:53;;;;;;;20.50;10.30;;;;;;;6.96;68.42;98664.70;77978;1301;3051401;-63
2023/03/07 09:56:32;;;;;;;18.40;10.00;;;;;;;7.09;67.70;98660.98;79184;1301;3013040;-61
2023/03/07 09:59:28;;;;;;;16.60;10.20;;;;;;;7.13;67.63;98657.73;77976;1302;3070053;-62
2023/03/07 10:02:10;;;;;;;19.70;9.60;;;;;;;7.16;66.45;98649.56;77882;1301;3051591;-61
2023/03/07 10:04:49;;;;;;;22.80;9.80;;;;;;;7.19;66.32;98647.69;78714;1302;3011832;-62
2023/03/07 10:07:18;;;;;;;16.20;9.80;;;;;;;6.98;66.75;98650.85;77926;1300;3058116;-60
2023/03/07 10:09:45;;;;;;;19.00;9.50;;;;;;;7.05;66.71;98642.91;79377;1299;3013583;-62
2023/03/07 10:12:18;;;;;;;13.10;8.30;;;;;;;7.21;65.06;98635.01;79136;1299;3011624;-63
2023/03/07 10:15:03;;;;;;;15.70;8.60;;;;;;;7.03;64.61;98637.63;77970;1300;3052624;-61
2023/03/07 10:17:37;;;;;;;17.50;8.70;;;;;;;7.23;62.90;98628.07;78025;1301;3052344;-61
2023/03/07 10:20:07;;;;;;;16.60;8.90;;;;;;;7.45;62.96;98625.69;79286;1301;3011656;-61
2023/03/07 10:22:38;;;;;;;15.50;8.60;;;;;;;7.50;62.78;98619.84;78007;1309;3051130;-62
2023/03/07 10:25:31;;;;;;;15.80;8.60;;;;;;;7.73;62.44;98616.14;79259;1301;3011873;-61
2023/03/07 10:28:07;;;;;;;14.80;7.50;;;;;;;7.72;61.69;98615.16;77838;1300;3049936;-62
2023/03/07 10:30:36;;;;;;;17.00;7.50;;;;;;;7.55;60.38;98612.90;78010;1299;3053723;-62
2023/03/07 10:33:04;;;;;;;16.30;7.30;;;;;;;7.68;59.95;98604.77;79212;1301;3013485;-62
2023/03/07 10:35:40;;;;;;;12.50;7.10;;;;;;;7.81;59.33;98605.89;79248;1301;3011889;-63
2023/03/07 10:38:15;;;;;;;14.80;7.20;;;;;;;7.84;59.44;98597.88;78098;1301;3069189;-62
2023/03/07 10:40:51;;;;;;;15.00;6.80;;;;;;;8.05;58.92;98601.07;78670;1299;3011904;-65
2023/03/07 10:43:28;;;;;;;14.10;7.40;;;;;;;8.09;58.52;98595.94;78798;1298;3012953;-62
2023/03/07 10:46:13;;;;;;;14.60;6.40;;;;;;;7.70;57.79;98599.12;77987;1301;3051140;-65
2023/03/07 10:48:50;;;;;;;9.90;6.00;;;;;;;7.74;57.51;98593.92;78036;1301;3057114;-63
2023/03/07 10:51:44;;;;;;;12.30;7.30;;;;;;;8.01;56.93;98581.42;77983;1301;3050188;-63
2023/03/07 10:54:17;;;;;;;13.00;7.20;;;;;;;8.04;56.58;98584.03;77994;1300;3054696;-62
2023/03/07 10:57:11;;;;;;;18.00;8.50;;;;;;;8.04;56.57;98580.58;79207;1296;3013097;-61
2023/03/07 10:59:48;;;;;;;14.30;8.20;;;;;;;8.19;56.58;98581.85;77974;1301;3052246;-62
2023/03/07 11:02:36;;;;;;;16.70;8.10;;;;;;;8.22;56.83;98567.52;77955;1301;3052412;-64
2023/03/07 11:05:26;;;;;;;14.70;8.10;;;;;;;8.49;56.57;98559.53;77954;1301;3070737;-61
2023/03/07 11:07:56;;;;;;;15.60;8.70;;;;;;;8.73;55.94;98554.59;78045;1301;3051993;-62
2023/03/07 11:10:37;;;;;;;23.90;10.90;;;;;;;8.66;55.41;98545.13;79302;1298;3013656;-62
2023/03/07 11:13:16;;;;;;;23.30;11.20;;;;;;;8.76;54.54;98550.38;77972;1295;3053280;-63
2023/03/07 11:15:45;;;;;;;23.10;11.30;;;;;;;8.65;53.79;98546.40;78028;1300;3051015;-61
2023/03/07 11:18:36;;;;;;;22.90;11.30;;;;;;;8.50;53.41;98543.92;79408;1301;3018291;-60
2023/03/07 11:21:04;;;;;;;26.10;12.70;;;;;;;8.50;53.79;98536.05;78100;1301;3069297;-60
2023/03/07 11:23:31;;;;;;;28.10;11.50;;;;;;;8.67;53.65;98537.21;79233;1301;3013616;-61
2023/03/07 11:26:16;;;;;;;20.70;11.30;;;;;;;8.69;53.78;98539.67;79266;1300;3013479;-62
2023/03/07 12:33:40;;;;;;;14.60;8.70;;;;;;;8.87;51.35;98518.36;80019;1299;3013511;-60
2023/03/07 12:36:11;;;;;;;17.30;8.60;;;;;;;8.80;51.48;98515.88;77773;1302;3053784;-65